sensor_id;sensor_type;location;lat;lon;timestamp;P1;durP1;ratioP1;P2;durP2;ratioP2
3633;SDS011;1833;42.718;23.270;2023-05-10T00:01:46;40.40;;;37.50;;
3633;SDS011;1833;42.718;23.270;2023-05-10T00:04:14;37.87;;;34.90;;
3633;SDS011;1833;42.718;23.270;2023-05-10T00:06:42;36.80;;;34.33;;
3633;SDS011;1833;42.718;23.270;2023-05-10T00:09:09;37.23;;;34.73;;
3633;SDS011;1833;42.718;23.270;2023-05-10T00:11:37;37.17;;;34.40;;
3633;SDS011;1833;42.718;23.270;2023-05-10T00:14:05;36.40;;;33.70;;
3633;SDS011;1833;42.718;23.270;2023-05-10T00:16:32;36.70;;;33.97;;
3633;SDS011;1833;42.718;23.270;2023-05-10T00:19:01;37.70;;;34.90;;
3633;SDS011;1833;42.718;23.270;2023-05-10T00:21:28;38.13;;;35.03;;
3633;SDS011;1833;42.718;23.270;2023-05-10T00:23:55;41.97;;;38.40;;
3633;SDS011;1833;42.718;23.270;2023-05-10T00:26:23;37.37;;;34.37;;
3633;SDS011;1833;42.718;23.270;2023-05-10T00:28:50;39.03;;;36.13;;
3633;SDS011;1833;42.718;23.270;2023-05-10T00:31:17;37.20;;;34.30;;
3633;SDS011;1833;42.718;23.270;2023-05-10T00:33:44;37.67;;;34.77;;
3633;SDS011;1833;42.718;23.270;2023-05-10T00:36:13;36.30;;;33.50;;
3633;SDS011;1833;42.718;23.270;2023-05-10T00:38:40;36.90;;;33.80;;
3633;SDS011;1833;42.718;23.270;2023-05-10T00:41:07;38.47;;;35.33;;
3633;SDS011;1833;42.718;23.270;2023-05-10T00:43:35;37.03;;;34.13;;
3633;SDS011;1833;42.718;23.270;2023-05-10T00:46:02;38.37;;;35.40;;
3633;SDS011;1833;42.718;23.270;2023-05-10T00:48:30;37.20;;;34.20;;
3633;SDS011;1833;42.718;23.270;2023-05-10T00:50:57;36.43;;;33.50;;
3633;SDS011;1833;42.718;23.270;2023-05-10T00:53:26;36.93;;;34.03;;
3633;SDS011;1833;42.718;23.270;2023-05-10T00:55:53;35.97;;;33.30;;
3633;SDS011;1833;42.718;23.270;2023-05-10T00:58:21;38.43;;;35.03;;
3633;SDS011;1833;42.718;23.270;2023-05-10T01:00:49;38.63;;;35.63;;
3633;SDS011;1833;42.718;23.270;2023-05-10T01:03:17;34.60;;;32.00;;
3633;SDS011;1833;42.718;23.270;2023-05-10T01:05:45;40.20;;;36.90;;
3633;SDS011;1833;42.718;23.270;2023-05-10T01:08:12;38.13;;;35.03;;
3633;SDS011;1833;42.718;23.270;2023-05-10T01:10:41;34.47;;;31.87;;
3633;SDS011;1833;42.718;23.270;2023-05-10T01:13:08;39.00;;;35.80;;
3633;SDS011;1833;42.718;23.270;2023-05-10T01:15:36;38.93;;;35.77;;
3633;SDS011;1833;42.718;23.270;2023-05-10T01:18:03;39.70;;;36.43;;
3633;SDS011;1833;42.718;23.270;2023-05-10T01:20:32;37.90;;;34.80;;
3633;SDS011;1833;42.718;23.270;2023-05-10T01:23:19;39.60;;;36.30;;
3633;SDS011;1833;42.718;23.270;2023-05-10T01:28:42;37.57;;;34.50;;
3633;SDS011;1833;42.718;23.270;2023-05-10T01:34:00;35.50;;;32.73;;
3633;SDS011;1833;42.718;23.270;2023-05-10T01:36:30;37.23;;;34.33;;
3633;SDS011;1833;42.718;23.270;2023-05-10T01:38:59;35.03;;;32.30;;
3633;SDS011;1833;42.718;23.270;2023-05-10T01:41:31;35.37;;;32.77;;
3633;SDS011;1833;42.718;23.270;2023-05-10T01:44:03;37.43;;;34.63;;
3633;SDS011;1833;42.718;23.270;2023-05-10T01:46:33;37.90;;;34.87;;
3633;SDS011;1833;42.718;23.270;2023-05-10T01:49:06;40.20;;;37.13;;
3633;SDS011;1833;42.718;23.270;2023-05-10T01:51:36;39.53;;;36.13;;
3633;SDS011;1833;42.718;23.270;2023-05-10T01:54:04;37.73;;;34.80;;
3633;SDS011;1833;42.718;23.270;2023-05-10T01:56:33;35.43;;;32.83;;
3633;SDS011;1833;42.718;23.270;2023-05-10T01:59:02;38.50;;;35.40;;
3633;SDS011;1833;42.718;23.270;2023-05-10T02:01:33;36.67;;;33.97;;
3633;SDS011;1833;42.718;23.270;2023-05-10T02:04:00;36.70;;;34.00;;
3633;SDS011;1833;42.718;23.270;2023-05-10T02:06:30;37.63;;;34.53;;
3633;SDS011;1833;42.718;23.270;2023-05-10T02:08:58;32.37;;;30.13;;
3633;SDS011;1833;42.718;23.270;2023-05-10T02:11:27;34.00;;;31.40;;
3633;SDS011;1833;42.718;23.270;2023-05-10T02:13:55;34.80;;;32.00;;
3633;SDS011;1833;42.718;23.270;2023-05-10T02:16:23;32.50;;;30.00;;
3633;SDS011;1833;42.718;23.270;2023-05-10T02:18:51;33.50;;;30.93;;
3633;SDS011;1833;42.718;23.270;2023-05-10T02:21:19;33.13;;;30.50;;
3633;SDS011;1833;42.718;23.270;2023-05-10T02:23:48;34.30;;;31.60;;
3633;SDS011;1833;42.718;23.270;2023-05-10T02:26:17;32.10;;;29.80;;
3633;SDS011;1833;42.718;23.270;2023-05-10T02:28:45;34.57;;;31.80;;
3633;SDS011;1833;42.718;23.270;2023-05-10T02:31:13;32.70;;;30.20;;
3633;SDS011;1833;42.718;23.270;2023-05-10T02:33:41;31.37;;;29.17;;
3633;SDS011;1833;42.718;23.270;2023-05-10T02:36:09;31.97;;;29.57;;
3633;SDS011;1833;42.718;23.270;2023-05-10T02:38:37;32.83;;;30.33;;
3633;SDS011;1833;42.718;23.270;2023-05-10T02:41:07;33.90;;;31.30;;
3633;SDS011;1833;42.718;23.270;2023-05-10T02:43:35;33.40;;;30.50;;
3633;SDS011;1833;42.718;23.270;2023-05-10T02:46:04;31.43;;;29.13;;
3633;SDS011;1833;42.718;23.270;2023-05-10T02:48:31;30.50;;;28.20;;
3633;SDS011;1833;42.718;23.270;2023-05-10T02:51:00;29.23;;;27.13;;
3633;SDS011;1833;42.718;23.270;2023-05-10T02:53:29;26.50;;;24.80;;
3633;SDS011;1833;42.718;23.270;2023-05-10T02:55:58;27.87;;;25.77;;
3633;SDS011;1833;42.718;23.270;2023-05-10T02:58:27;26.40;;;24.30;;
3633;SDS011;1833;42.718;23.270;2023-05-10T03:00:55;25.83;;;23.73;;
3633;SDS011;1833;42.718;23.270;2023-05-10T03:03:22;25.40;;;23.37;;
3633;SDS011;1833;42.718;23.270;2023-05-10T03:05:49;24.60;;;22.87;;
3633;SDS011;1833;42.718;23.270;2023-05-10T03:08:18;24.43;;;22.73;;
3633;SDS011;1833;42.718;23.270;2023-05-10T03:10:50;25.73;;;23.80;;
3633;SDS011;1833;42.718;23.270;2023-05-10T03:13:24;23.83;;;22.10;;
3633;SDS011;1833;42.718;23.270;2023-05-10T03:16:05;28.27;;;25.77;;
3633;SDS011;1833;42.718;23.270;2023-05-10T03:18:39;23.80;;;22.10;;
3633;SDS011;1833;42.718;23.270;2023-05-10T03:21:15;23.47;;;21.67;;
3633;SDS011;1833;42.718;23.270;2023-05-10T03:23:46;23.57;;;21.67;;
3633;SDS011;1833;42.718;23.270;2023-05-10T03:26:20;24.10;;;22.20;;
3633;SDS011;1833;42.718;23.270;2023-05-10T03:28:51;23.80;;;21.70;;
3633;SDS011;1833;42.718;23.270;2023-05-10T03:31:22;22.33;;;20.50;;
3633;SDS011;1833;42.718;23.270;2023-05-10T03:33:52;19.97;;;18.63;;
3633;SDS011;1833;42.718;23.270;2023-05-10T03:36:29;22.83;;;21.17;;
3633;SDS011;1833;42.718;23.270;2023-05-10T03:38:58;23.73;;;21.93;;
3633;SDS011;1833;42.718;23.270;2023-05-10T03:41:26;22.63;;;21.13;;
3633;SDS011;1833;42.718;23.270;2023-05-10T03:43:55;22.00;;;20.40;;
3633;SDS011;1833;42.718;23.270;2023-05-10T03:46:25;23.57;;;21.57;;
3633;SDS011;1833;42.718;23.270;2023-05-10T03:48:56;21.97;;;20.43;;
3633;SDS011;1833;42.718;23.270;2023-05-10T03:51:23;22.93;;;21.07;;
3633;SDS011;1833;42.718;23.270;2023-05-10T03:53:53;23.33;;;21.47;;
3633;SDS011;1833;42.718;23.270;2023-05-10T03:56:28;21.30;;;19.80;;
3633;SDS011;1833;42.718;23.270;2023-05-10T03:58:55;22.30;;;20.70;;
3633;SDS011;1833;42.718;23.270;2023-05-10T04:01:22;23.00;;;21.27;;
3633;SDS011;1833;42.718;23.270;2023-05-10T04:03:51;22.50;;;20.77;;
3633;SDS011;1833;42.718;23.270;2023-05-10T04:06:18;23.17;;;21.30;;
3633;SDS011;1833;42.718;23.270;2023-05-10T04:08:46;22.27;;;20.60;;
3633;SDS011;1833;42.718;23.270;2023-05-10T04:11:13;24.60;;;22.43;;
3633;SDS011;1833;42.718;23.270;2023-05-10T04:13:40;20.53;;;19.03;;
3633;SDS011;1833;42.718;23.270;2023-05-10T04:16:08;20.73;;;19.30;;
3633;SDS011;1833;42.718;23.270;2023-05-10T04:18:35;21.27;;;19.90;;
3633;SDS011;1833;42.718;23.270;2023-05-10T04:21:04;21.63;;;20.03;;
3633;SDS011;1833;42.718;23.270;2023-05-10T04:23:31;21.23;;;19.73;;
3633;SDS011;1833;42.718;23.270;2023-05-10T04:25:59;22.03;;;20.33;;
3633;SDS011;1833;42.718;23.270;2023-05-10T04:28:26;22.10;;;20.47;;
3633;SDS011;1833;42.718;23.270;2023-05-10T04:31:00;24.10;;;22.40;;
3633;SDS011;1833;42.718;23.270;2023-05-10T04:33:27;25.77;;;23.37;;
3633;SDS011;1833;42.718;23.270;2023-05-10T04:35:54;27.67;;;25.57;;
3633;SDS011;1833;42.718;23.270;2023-05-10T04:38:23;25.50;;;23.20;;
3633;SDS011;1833;42.718;23.270;2023-05-10T04:40:50;27.37;;;25.27;;
3633;SDS011;1833;42.718;23.270;2023-05-10T04:43:18;27.40;;;25.50;;
3633;SDS011;1833;42.718;23.270;2023-05-10T04:45:45;29.97;;;27.70;;
3633;SDS011;1833;42.718;23.270;2023-05-10T04:48:14;31.17;;;28.63;;
3633;SDS011;1833;42.718;23.270;2023-05-10T04:50:42;32.13;;;29.30;;
3633;SDS011;1833;42.718;23.270;2023-05-10T04:53:10;32.33;;;29.77;;
3633;SDS011;1833;42.718;23.270;2023-05-10T04:55:46;30.77;;;28.37;;
3633;SDS011;1833;42.718;23.270;2023-05-10T04:58:14;30.30;;;27.70;;
3633;SDS011;1833;42.718;23.270;2023-05-10T05:00:43;28.40;;;26.17;;
3633;SDS011;1833;42.718;23.270;2023-05-10T05:03:11;28.83;;;26.80;;
3633;SDS011;1833;42.718;23.270;2023-05-10T05:05:38;29.50;;;27.10;;
3633;SDS011;1833;42.718;23.270;2023-05-10T05:08:07;30.70;;;28.40;;
3633;SDS011;1833;42.718;23.270;2023-05-10T05:10:34;30.30;;;28.00;;
3633;SDS011;1833;42.718;23.270;2023-05-10T05:13:08;33.73;;;30.80;;
3633;SDS011;1833;42.718;23.270;2023-05-10T05:15:38;34.10;;;30.90;;
3633;SDS011;1833;42.718;23.270;2023-05-10T05:18:06;33.83;;;31.03;;
3633;SDS011;1833;42.718;23.270;2023-05-10T05:20:33;32.23;;;29.53;;
3633;SDS011;1833;42.718;23.270;2023-05-10T05:23:01;32.23;;;29.93;;
3633;SDS011;1833;42.718;23.270;2023-05-10T05:25:28;32.83;;;30.47;;
3633;SDS011;1833;42.718;23.270;2023-05-10T05:27:55;36.00;;;33.20;;
3633;SDS011;1833;42.718;23.270;2023-05-10T05:30:26;37.43;;;34.27;;
3633;SDS011;1833;42.718;23.270;2023-05-10T05:32:53;35.10;;;32.10;;
3633;SDS011;1833;42.718;23.270;2023-05-10T05:35:21;36.27;;;33.30;;
3633;SDS011;1833;42.718;23.270;2023-05-10T05:37:48;38.90;;;35.43;;
3633;SDS011;1833;42.718;23.270;2023-05-10T05:40:16;36.63;;;33.20;;
3633;SDS011;1833;42.718;23.270;2023-05-10T05:42:43;34.53;;;31.63;;
3633;SDS011;1833;42.718;23.270;2023-05-10T05:45:10;33.30;;;30.70;;
3633;SDS011;1833;42.718;23.270;2023-05-10T05:47:40;31.73;;;29.10;;
3633;SDS011;1833;42.718;23.270;2023-05-10T05:50:07;29.80;;;27.50;;
3633;SDS011;1833;42.718;23.270;2023-05-10T05:52:35;29.53;;;26.97;;
3633;SDS011;1833;42.718;23.270;2023-05-10T05:55:02;27.97;;;25.60;;
3633;SDS011;1833;42.718;23.270;2023-05-10T05:57:29;28.40;;;25.60;;
3633;SDS011;1833;42.718;23.270;2023-05-10T05:59:57;29.80;;;27.37;;
3633;SDS011;1833;42.718;23.270;2023-05-10T06:02:24;30.77;;;27.83;;
3633;SDS011;1833;42.718;23.270;2023-05-10T06:04:53;33.27;;;30.30;;
3633;SDS011;1833;42.718;23.270;2023-05-10T06:07:20;32.70;;;30.20;;
3633;SDS011;1833;42.718;23.270;2023-05-10T06:09:47;37.00;;;33.90;;
3633;SDS011;1833;42.718;23.270;2023-05-10T06:12:14;36.37;;;33.33;;
3633;SDS011;1833;42.718;23.270;2023-05-10T06:14:42;36.27;;;33.30;;
3633;SDS011;1833;42.718;23.270;2023-05-10T06:17:12;36.70;;;33.70;;
3633;SDS011;1833;42.718;23.270;2023-05-10T06:19:39;38.53;;;35.53;;
3633;SDS011;1833;42.718;23.270;2023-05-10T06:22:08;36.60;;;33.73;;
3633;SDS011;1833;42.718;23.270;2023-05-10T06:24:35;34.60;;;31.80;;
3633;SDS011;1833;42.718;23.270;2023-05-10T06:27:02;33.67;;;31.17;;
3633;SDS011;1833;42.718;23.270;2023-05-10T06:29:29;33.53;;;30.90;;
3633;SDS011;1833;42.718;23.270;2023-05-10T06:31:57;33.93;;;31.00;;
3633;SDS011;1833;42.718;23.270;2023-05-10T06:34:24;32.70;;;29.70;;
3633;SDS011;1833;42.718;23.270;2023-05-10T06:36:51;33.90;;;30.27;;
3633;SDS011;1833;42.718;23.270;2023-05-10T06:39:20;33.97;;;31.07;;
3633;SDS011;1833;42.718;23.270;2023-05-10T06:41:47;30.07;;;27.67;;
3633;SDS011;1833;42.718;23.270;2023-05-10T06:44:14;28.90;;;26.40;;
3633;SDS011;1833;42.718;23.270;2023-05-10T06:46:42;29.13;;;26.70;;
3633;SDS011;1833;42.718;23.270;2023-05-10T06:49:09;27.30;;;24.97;;
3633;SDS011;1833;42.718;23.270;2023-05-10T06:51:36;27.40;;;25.00;;
3633;SDS011;1833;42.718;23.270;2023-05-10T06:54:04;25.50;;;23.40;;
3633;SDS011;1833;42.718;23.270;2023-05-10T06:56:33;27.20;;;24.97;;
3633;SDS011;1833;42.718;23.270;2023-05-10T06:59:00;27.07;;;24.67;;
3633;SDS011;1833;42.718;23.270;2023-05-10T07:01:28;26.97;;;24.77;;
3633;SDS011;1833;42.718;23.270;2023-05-10T07:03:55;27.17;;;24.83;;
3633;SDS011;1833;42.718;23.270;2023-05-10T07:06:22;26.20;;;24.10;;
3633;SDS011;1833;42.718;23.270;2023-05-10T07:08:49;24.50;;;22.60;;
3633;SDS011;1833;42.718;23.270;2023-05-10T07:11:17;26.27;;;23.23;;
3633;SDS011;1833;42.718;23.270;2023-05-10T07:13:45;25.63;;;23.60;;
3633;SDS011;1833;42.718;23.270;2023-05-10T07:16:13;26.23;;;24.00;;
3633;SDS011;1833;42.718;23.270;2023-05-10T07:18:40;26.57;;;24.27;;
3633;SDS011;1833;42.718;23.270;2023-05-10T07:21:07;27.03;;;24.50;;
3633;SDS011;1833;42.718;23.270;2023-05-10T07:23:34;24.80;;;22.40;;
3633;SDS011;1833;42.718;23.270;2023-05-10T07:26:02;25.70;;;23.30;;
3633;SDS011;1833;42.718;23.270;2023-05-10T07:28:29;31.57;;;28.07;;
3633;SDS011;1833;42.718;23.270;2023-05-10T07:30:58;33.97;;;28.30;;
3633;SDS011;1833;42.718;23.270;2023-05-10T07:33:25;44.00;;;34.17;;
3633;SDS011;1833;42.718;23.270;2023-05-10T07:35:53;25.20;;;23.20;;
3633;SDS011;1833;42.718;23.270;2023-05-10T07:38:20;24.23;;;22.33;;
3633;SDS011;1833;42.718;23.270;2023-05-10T07:40:47;41.60;;;26.73;;
3633;SDS011;1833;42.718;23.270;2023-05-10T07:43:14;25.63;;;23.47;;
3633;SDS011;1833;42.718;23.270;2023-05-10T07:45:42;25.33;;;23.17;;
3633;SDS011;1833;42.718;23.270;2023-05-10T07:48:11;25.57;;;23.40;;
3633;SDS011;1833;42.718;23.270;2023-05-10T07:50:38;25.37;;;23.07;;
3633;SDS011;1833;42.718;23.270;2023-05-10T07:53:05;25.17;;;23.00;;
3633;SDS011;1833;42.718;23.270;2023-05-10T08:11:35;25.60;;;23.40;;
3633;SDS011;1833;42.718;23.270;2023-05-10T08:14:02;26.67;;;24.50;;
3633;SDS011;1833;42.718;23.270;2023-05-10T08:16:29;25.00;;;22.63;;
3633;SDS011;1833;42.718;23.270;2023-05-10T08:18:57;26.70;;;24.20;;
3633;SDS011;1833;42.718;23.270;2023-05-10T08:21:24;25.47;;;23.47;;
3633;SDS011;1833;42.718;23.270;2023-05-10T08:23:52;26.77;;;24.37;;
3633;SDS011;1833;42.718;23.270;2023-05-10T08:26:19;35.00;;;31.23;;
3633;SDS011;1833;42.718;23.270;2023-05-10T08:28:48;31.77;;;28.80;;
3633;SDS011;1833;42.718;23.270;2023-05-10T08:31:15;29.07;;;26.57;;
3633;SDS011;1833;42.718;23.270;2023-05-10T08:33:43;31.27;;;28.67;;
3633;SDS011;1833;42.718;23.270;2023-05-10T08:36:10;29.63;;;27.20;;
3633;SDS011;1833;42.718;23.270;2023-05-10T08:38:39;34.20;;;31.17;;
3633;SDS011;1833;42.718;23.270;2023-05-10T08:41:06;37.07;;;33.97;;
3633;SDS011;1833;42.718;23.270;2023-05-10T08:43:33;34.77;;;31.93;;
3633;SDS011;1833;42.718;23.270;2023-05-10T08:46:04;33.43;;;30.00;;
3633;SDS011;1833;42.718;23.270;2023-05-10T08:48:32;29.80;;;27.50;;
3633;SDS011;1833;42.718;23.270;2023-05-10T08:51:01;30.73;;;27.63;;
3633;SDS011;1833;42.718;23.270;2023-05-10T08:53:30;30.23;;;27.63;;
3633;SDS011;1833;42.718;23.270;2023-05-10T08:55:58;29.87;;;27.37;;
3633;SDS011;1833;42.718;23.270;2023-05-10T08:58:25;30.77;;;27.80;;
3633;SDS011;1833;42.718;23.270;2023-05-10T09:00:52;27.07;;;24.67;;
3633;SDS011;1833;42.718;23.270;2023-05-10T09:03:21;26.03;;;23.53;;
3633;SDS011;1833;42.718;23.270;2023-05-10T09:05:48;28.10;;;23.07;;
3633;SDS011;1833;42.718;23.270;2023-05-10T09:08:16;24.37;;;22.37;;
3633;SDS011;1833;42.718;23.270;2023-05-10T09:10:44;25.77;;;23.20;;
3633;SDS011;1833;42.718;23.270;2023-05-10T09:13:12;26.83;;;24.47;;
3633;SDS011;1833;42.718;23.270;2023-05-10T09:15:43;23.33;;;21.30;;
3633;SDS011;1833;42.718;23.270;2023-05-10T09:18:11;24.27;;;22.47;;
3633;SDS011;1833;42.718;23.270;2023-05-10T09:20:40;25.43;;;23.43;;
3633;SDS011;1833;42.718;23.270;2023-05-10T09:23:07;26.47;;;23.93;;
3633;SDS011;1833;42.718;23.270;2023-05-10T09:25:35;27.70;;;25.40;;
3633;SDS011;1833;42.718;23.270;2023-05-10T09:28:05;25.70;;;23.53;;
3633;SDS011;1833;42.718;23.270;2023-05-10T09:30:33;26.37;;;24.27;;
3633;SDS011;1833;42.718;23.270;2023-05-10T09:33:00;27.53;;;24.90;;
3633;SDS011;1833;42.718;23.270;2023-05-10T09:35:28;27.27;;;24.97;;
3633;SDS011;1833;42.718;23.270;2023-05-10T09:37:59;28.20;;;25.70;;
3633;SDS011;1833;42.718;23.270;2023-05-10T09:40:27;26.67;;;24.57;;
3633;SDS011;1833;42.718;23.270;2023-05-10T09:42:55;27.73;;;25.33;;
3633;SDS011;1833;42.718;23.270;2023-05-10T09:45:23;26.87;;;24.67;;
3633;SDS011;1833;42.718;23.270;2023-05-10T09:47:50;27.03;;;24.90;;
3633;SDS011;1833;42.718;23.270;2023-05-10T09:50:18;27.23;;;24.93;;
3633;SDS011;1833;42.718;23.270;2023-05-10T09:52:46;26.77;;;24.57;;
3633;SDS011;1833;42.718;23.270;2023-05-10T09:55:15;25.17;;;23.17;;
3633;SDS011;1833;42.718;23.270;2023-05-10T09:57:43;26.30;;;24.07;;
3633;SDS011;1833;42.718;23.270;2023-05-10T10:00:10;28.70;;;26.33;;
3633;SDS011;1833;42.718;23.270;2023-05-10T10:05:11;27.97;;;25.47;;
3633;SDS011;1833;42.718;23.270;2023-05-10T10:07:38;28.33;;;25.93;;
3633;SDS011;1833;42.718;23.270;2023-05-10T10:10:06;27.60;;;25.37;;
3633;SDS011;1833;42.718;23.270;2023-05-10T10:12:38;27.23;;;25.00;;
3633;SDS011;1833;42.718;23.270;2023-05-10T10:15:05;26.53;;;24.30;;
3633;SDS011;1833;42.718;23.270;2023-05-10T10:17:33;28.50;;;26.10;;
3633;SDS011;1833;42.718;23.270;2023-05-10T10:20:02;28.83;;;26.23;;
3633;SDS011;1833;42.718;23.270;2023-05-10T10:22:31;27.33;;;25.13;;
3633;SDS011;1833;42.718;23.270;2023-05-10T10:25:01;28.20;;;25.87;;
3633;SDS011;1833;42.718;23.270;2023-05-10T10:27:33;27.47;;;25.10;;
3633;SDS011;1833;42.718;23.270;2023-05-10T10:30:17;27.73;;;25.30;;
3633;SDS011;1833;42.718;23.270;2023-05-10T10:33:16;29.00;;;26.30;;
3633;SDS011;1833;42.718;23.270;2023-05-10T10:35:45;35.83;;;25.43;;
3633;SDS011;1833;42.718;23.270;2023-05-10T10:38:13;26.10;;;23.70;;
3633;SDS011;1833;42.718;23.270;2023-05-10T10:40:51;27.80;;;25.50;;
3633;SDS011;1833;42.718;23.270;2023-05-10T20:26:31;29.00;;;26.50;;
3633;SDS011;1833;42.718;23.270;2023-05-10T20:28:58;30.63;;;27.37;;
3633;SDS011;1833;42.718;23.270;2023-05-10T20:31:26;28.73;;;26.33;;
3633;SDS011;1833;42.718;23.270;2023-05-10T20:33:53;30.90;;;28.10;;
3633;SDS011;1833;42.718;23.270;2023-05-10T20:36:22;39.33;;;30.03;;
3633;SDS011;1833;42.718;23.270;2023-05-10T20:38:51;29.67;;;27.07;;
3633;SDS011;1833;42.718;23.270;2023-05-10T20:41:23;31.37;;;28.03;;
3633;SDS011;1833;42.718;23.270;2023-05-10T20:43:58;29.17;;;26.57;;
3633;SDS011;1833;42.718;23.270;2023-05-10T20:46:29;33.57;;;30.20;;
3633;SDS011;1833;42.718;23.270;2023-05-10T20:48:56;29.27;;;26.67;;
3633;SDS011;1833;42.718;23.270;2023-05-10T20:51:27;30.73;;;28.03;;
3633;SDS011;1833;42.718;23.270;2023-05-10T20:53:57;30.97;;;27.77;;
3633;SDS011;1833;42.718;23.270;2023-05-10T20:56:25;29.17;;;26.47;;
3633;SDS011;1833;42.718;23.270;2023-05-10T20:58:53;31.53;;;28.67;;
3633;SDS011;1833;42.718;23.270;2023-05-10T21:01:22;29.30;;;26.90;;
3633;SDS011;1833;42.718;23.270;2023-05-10T21:03:50;29.93;;;27.30;;
3633;SDS011;1833;42.718;23.270;2023-05-10T21:06:18;30.00;;;27.30;;
3633;SDS011;1833;42.718;23.270;2023-05-10T21:08:45;27.93;;;25.83;;
3633;SDS011;1833;42.718;23.270;2023-05-10T21:11:13;30.10;;;27.30;;
3633;SDS011;1833;42.718;23.270;2023-05-10T21:13:40;29.57;;;26.67;;
3633;SDS011;1833;42.718;23.270;2023-05-10T21:16:09;29.03;;;26.53;;
3633;SDS011;1833;42.718;23.270;2023-05-10T21:18:37;29.97;;;26.93;;
3633;SDS011;1833;42.718;23.270;2023-05-10T21:21:05;26.17;;;24.17;;
3633;SDS011;1833;42.718;23.270;2023-05-10T21:23:33;29.47;;;26.60;;
3633;SDS011;1833;42.718;23.270;2023-05-10T21:26:01;28.03;;;25.73;;
3633;SDS011;1833;42.718;23.270;2023-05-10T21:28:28;30.50;;;27.70;;
3633;SDS011;1833;42.718;23.270;2023-05-10T21:31:05;28.77;;;26.30;;
3633;SDS011;1833;42.718;23.270;2023-05-10T21:55:34;29.93;;;27.47;;
3633;SDS011;1833;42.718;23.270;2023-05-10T21:58:09;28.73;;;26.33;;
3633;SDS011;1833;42.718;23.270;2023-05-10T22:01:27;28.63;;;26.33;;
3633;SDS011;1833;42.718;23.270;2023-05-10T23:45:19;26.40;;;24.40;;
3633;SDS011;1833;42.718;23.270;2023-05-10T23:54:03;25.50;;;23.53;;
3633;SDS011;1833;42.718;23.270;2023-05-10T23:59:43;26.27;;;24.23;;
